sensor_id;sensor_type;location;lat;lon;timestamp;pressure;altitude;pressure_sealevel;temperature;humidity
15750;BME280;7976;52.526;13.326;2022-09-30T00:01:00;100382.50;;;10.66;80.79
15750;BME280;7976;52.526;13.326;2022-09-30T00:03:27;100387.94;;;10.61;80.83
15750;BME280;7976;52.526;13.326;2022-09-30T00:05:59;100386.28;;;10.59;80.95
15750;BME280;7976;52.526;13.326;2022-09-30T00:08:27;100382.06;;;10.56;81.05
15750;BME280;7976;52.526;13.326;2022-09-30T00:10:59;100391.66;;;10.56;81.22
15750;BME280;7976;52.526;13.326;2022-09-30T00:13:26;100391.78;;;10.53;81.37
15750;BME280;7976;52.526;13.326;2022-09-30T00:15:53;100397.91;;;10.52;81.87
15750;BME280;7976;52.526;13.326;2022-09-30T00:18:20;100390.13;;;10.50;81.90
15750;BME280;7976;52.526;13.326;2022-09-30T00:20:47;100397.22;;;10.48;81.70
15750;BME280;7976;52.526;13.326;2022-09-30T00:23:14;100397.25;;;10.47;81.85
15750;BME280;7976;52.526;13.326;2022-09-30T00:25:43;100397.25;;;10.47;81.76
15750;BME280;7976;52.526;13.326;2022-09-30T00:28:10;100396.38;;;10.48;81.80
15750;BME280;7976;52.526;13.326;2022-09-30T00:30:37;100400.94;;;10.43;81.87
15750;BME280;7976;52.526;13.326;2022-09-30T00:33:04;100401.84;;;10.42;81.81
15750;BME280;7976;52.526;13.326;2022-09-30T00:35:31;100407.03;;;10.43;81.85
15750;BME280;7976;52.526;13.326;2022-09-30T00:37:58;100398.31;;;10.43;82.11
15750;BME280;7976;52.526;13.326;2022-09-30T00:40:26;100402.63;;;10.44;82.10
15750;BME280;7976;52.526;13.326;2022-09-30T00:42:56;100397.41;;;10.44;81.95
15750;BME280;7976;52.526;13.326;2022-09-30T00:45:25;100401.75;;;10.45;81.86
15750;BME280;7976;52.526;13.326;2022-09-30T00:47:56;100400.16;;;10.41;81.97
15750;BME280;7976;52.526;13.326;2022-09-30T00:50:36;100396.75;;;10.39;81.84
15750;BME280;7976;52.526;13.326;2022-09-30T00:53:09;100402.97;;;10.36;82.06
15750;BME280;7976;52.526;13.326;2022-09-30T00:55:49;100403.03;;;10.35;82.02
15750;BME280;7976;52.526;13.326;2022-09-30T00:58:27;100409.09;;;10.35;82.10
15750;BME280;7976;52.526;13.326;2022-09-30T01:01:00;100408.28;;;10.35;82.19
15750;BME280;7976;52.526;13.326;2022-09-30T01:03:31;100406.53;;;10.34;82.29
15750;BME280;7976;52.526;13.326;2022-09-30T01:05:59;100410.88;;;10.35;82.40
15750;BME280;7976;52.526;13.326;2022-09-30T01:08:27;100406.53;;;10.34;82.25
15750;BME280;7976;52.526;13.326;2022-09-30T01:10:55;100406.69;;;10.31;82.23
15750;BME280;7976;52.526;13.326;2022-09-30T01:13:24;100405.00;;;10.30;82.43
15750;BME280;7976;52.526;13.326;2022-09-30T01:19:23;100413.88;;;10.26;82.66
15750;BME280;7976;52.526;13.326;2022-09-30T01:22:15;100421.72;;;10.26;82.62
15750;BME280;7976;52.526;13.326;2022-09-30T01:25:16;100422.63;;;10.25;82.36
15750;BME280;7976;52.526;13.326;2022-09-30T01:28:35;100426.16;;;10.24;82.68
15750;BME280;7976;52.526;13.326;2022-09-30T01:31:25;100422.75;;;10.22;82.31
15750;BME280;7976;52.526;13.326;2022-09-30T01:34:03;100421.91;;;10.21;82.95
15750;BME280;7976;52.526;13.326;2022-09-30T01:36:53;100413.19;;;10.21;82.68
15750;BME280;7976;52.526;13.326;2022-09-30T01:39:37;100412.28;;;10.22;82.75
15750;BME280;7976;52.526;13.326;2022-09-30T01:42:21;100414.13;;;10.20;82.61
15750;BME280;7976;52.526;13.326;2022-09-30T01:44:58;100409.94;;;10.16;82.77
15750;BME280;7976;52.526;13.326;2022-09-30T01:47:35;100410.78;;;10.16;82.83
15750;BME280;7976;52.526;13.326;2022-09-30T01:50:08;100412.53;;;10.16;82.77
15750;BME280;7976;52.526;13.326;2022-09-30T01:52:42;100413.47;;;10.15;82.97
15750;BME280;7976;52.526;13.326;2022-09-30T01:55:17;100424.81;;;10.13;82.72
15750;BME280;7976;52.526;13.326;2022-09-30T01:57:51;100415.28;;;10.13;82.95
15750;BME280;7976;52.526;13.326;2022-09-30T02:00:22;100416.09;;;10.15;82.84
15750;BME280;7976;52.526;13.326;2022-09-30T02:02:55;100416.91;;;10.15;82.75
15750;BME280;7976;52.526;13.326;2022-09-30T02:05:32;100409.25;;;10.10;82.77
15750;BME280;7976;52.526;13.326;2022-09-30T02:08:08;100404.03;;;10.10;82.98
15750;BME280;7976;52.526;13.326;2022-09-30T02:10:43;100408.41;;;10.10;82.91
15750;BME280;7976;52.526;13.326;2022-09-30T02:13:18;100415.53;;;10.05;82.81
15750;BME280;7976;52.526;13.326;2022-09-30T02:15:53;100414.75;;;10.03;82.87
15750;BME280;7976;52.526;13.326;2022-09-30T02:18:29;100419.31;;;9.98;82.88
15750;BME280;7976;52.526;13.326;2022-09-30T02:21:03;100435.84;;;9.98;83.11
15750;BME280;7976;52.526;13.326;2022-09-30T02:23:35;100427.13;;;9.99;83.07
15750;BME280;7976;52.526;13.326;2022-09-30T02:26:10;100420.19;;;9.98;83.21
15750;BME280;7976;52.526;13.326;2022-09-30T02:28:45;100420.19;;;9.98;82.97
15750;BME280;7976;52.526;13.326;2022-09-30T02:31:17;100429.78;;;9.98;82.97
15750;BME280;7976;52.526;13.326;2022-09-30T02:33:52;100429.84;;;9.96;82.90
15750;BME280;7976;52.526;13.326;2022-09-30T02:36:26;100433.31;;;9.97;82.96
15750;BME280;7976;52.526;13.326;2022-09-30T02:39:02;100428.22;;;9.94;83.14
15750;BME280;7976;52.526;13.326;2022-09-30T02:41:37;100433.63;;;9.89;83.18
15750;BME280;7976;52.526;13.326;2022-09-30T02:44:05;100430.22;;;9.87;83.07
15750;BME280;7976;52.526;13.326;2022-09-30T02:46:43;100439.75;;;9.88;83.37
15750;BME280;7976;52.526;13.326;2022-09-30T02:49:21;100444.19;;;9.86;83.20
15750;BME280;7976;52.526;13.326;2022-09-30T02:52:12;100441.69;;;9.83;83.09
15750;BME280;7976;52.526;13.326;2022-09-30T02:54:53;100445.34;;;9.79;83.32
15750;BME280;7976;52.526;13.326;2022-09-30T02:57:34;100445.44;;;9.76;83.14
15750;BME280;7976;52.526;13.326;2022-09-30T03:00:05;100453.22;;;9.78;83.34
15750;BME280;7976;52.526;13.326;2022-09-30T03:02:33;100458.50;;;9.76;83.78
15750;BME280;7976;52.526;13.326;2022-09-30T03:05:02;100459.31;;;9.78;83.66
15750;BME280;7976;52.526;13.326;2022-09-30T03:07:29;100449.72;;;9.79;83.76
15750;BME280;7976;52.526;13.326;2022-09-30T03:09:57;100459.31;;;9.78;83.58
15750;BME280;7976;52.526;13.326;2022-09-30T03:12:38;100449.78;;;9.77;83.60
15750;BME280;7976;52.526;13.326;2022-09-30T03:15:24;100452.38;;;9.77;83.84
15750;BME280;7976;52.526;13.326;2022-09-30T03:18:16;100451.53;;;9.77;83.94
15750;BME280;7976;52.526;13.326;2022-09-30T03:21:06;100446.50;;;9.72;83.60
15750;BME280;7976;52.526;13.326;2022-09-30T03:24:08;100457.06;;;9.69;83.79
15750;BME280;7976;52.526;13.326;2022-09-30T03:26:52;100459.69;;;9.69;83.86
15750;BME280;7976;52.526;13.326;2022-09-30T03:29:32;100455.34;;;9.68;84.13
15750;BME280;7976;52.526;13.326;2022-09-30T03:32:16;100461.50;;;9.67;83.98
15750;BME280;7976;52.526;13.326;2022-09-30T03:35:00;100465.91;;;9.65;84.18
15750;BME280;7976;52.526;13.326;2022-09-30T03:37:42;100467.72;;;9.63;84.00
15750;BME280;7976;52.526;13.326;2022-09-30T03:40:22;100466.94;;;9.61;84.00
15750;BME280;7976;52.526;13.326;2022-09-30T03:42:56;100461.03;;;9.56;84.40
15750;BME280;7976;52.526;13.326;2022-09-30T03:45:33;100468.97;;;9.53;84.45
15750;BME280;7976;52.526;13.326;2022-09-30T03:48:06;100471.66;;;9.52;84.52
15750;BME280;7976;52.526;13.326;2022-09-30T03:50:35;100485.56;;;9.52;84.68
15750;BME280;7976;52.526;13.326;2022-09-30T03:53:09;100490.63;;;9.57;84.42
15750;BME280;7976;52.526;13.326;2022-09-30T03:55:45;100487.94;;;9.58;84.61
15750;BME280;7976;52.526;13.326;2022-09-30T03:58:14;100490.56;;;9.58;84.64
15750;BME280;7976;52.526;13.326;2022-09-30T04:00:47;100490.50;;;9.60;84.48
15750;BME280;7976;52.526;13.326;2022-09-30T04:03:15;100491.53;;;9.56;84.62
15750;BME280;7976;52.526;13.326;2022-09-30T04:05:42;100492.44;;;9.55;84.58
15750;BME280;7976;52.526;13.326;2022-09-30T04:08:10;100494.16;;;9.56;84.53
15750;BME280;7976;52.526;13.326;2022-09-30T04:10:39;100496.72;;;9.57;84.75
15750;BME280;7976;52.526;13.326;2022-09-30T04:13:06;100493.28;;;9.55;84.45
15750;BME280;7976;52.526;13.326;2022-09-30T04:15:33;100494.94;;;9.58;84.69
15750;BME280;7976;52.526;13.326;2022-09-30T04:18:01;100504.53;;;9.57;84.69
15750;BME280;7976;52.526;13.326;2022-09-30T04:20:29;100498.50;;;9.55;84.59
15750;BME280;7976;52.526;13.326;2022-09-30T04:22:56;100500.31;;;9.53;84.52
15750;BME280;7976;52.526;13.326;2022-09-30T04:25:25;100507.28;;;9.54;84.66
15750;BME280;7976;52.526;13.326;2022-09-30T04:27:53;100513.38;;;9.53;84.60
15750;BME280;7976;52.526;13.326;2022-09-30T04:30:19;100517.59;;;9.57;84.74
15750;BME280;7976;52.526;13.326;2022-09-30T04:32:46;100510.56;;;9.59;84.51
15750;BME280;7976;52.526;13.326;2022-09-30T04:35:14;100515.00;;;9.57;84.41
15750;BME280;7976;52.526;13.326;2022-09-30T04:37:42;100521.91;;;9.58;84.56
15750;BME280;7976;52.526;13.326;2022-09-30T04:40:09;100515.94;;;9.55;84.22
15750;BME280;7976;52.526;13.326;2022-09-30T04:42:38;100517.75;;;9.53;84.59
15750;BME280;7976;52.526;13.326;2022-09-30T04:45:09;100524.81;;;9.51;84.32
15750;BME280;7976;52.526;13.326;2022-09-30T04:47:36;100526.56;;;9.50;84.44
15750;BME280;7976;52.526;13.326;2022-09-30T04:50:04;100533.66;;;9.47;84.36
15750;BME280;7976;52.526;13.326;2022-09-30T04:52:31;100534.56;;;9.46;84.47
15750;BME280;7976;52.526;13.326;2022-09-30T04:54:58;100535.41;;;9.46;84.80
15750;BME280;7976;52.526;13.326;2022-09-30T04:57:25;100540.63;;;9.46;84.92
15750;BME280;7976;52.526;13.326;2022-09-30T04:59:54;100552.84;;;9.46;84.59
15750;BME280;7976;52.526;13.326;2022-09-30T05:02:20;100551.19;;;9.43;84.59
15750;BME280;7976;52.526;13.326;2022-09-30T05:04:47;100548.63;;;9.42;84.54
15750;BME280;7976;52.526;13.326;2022-09-30T05:07:14;100554.78;;;9.41;84.58
15750;BME280;7976;52.526;13.326;2022-09-30T05:09:41;100556.53;;;9.40;84.49
15750;BME280;7976;52.526;13.326;2022-09-30T05:12:07;100563.56;;;9.38;84.68
15750;BME280;7976;52.526;13.326;2022-09-30T05:14:34;100562.66;;;9.39;84.71
15750;BME280;7976;52.526;13.326;2022-09-30T05:17:02;100561.88;;;9.37;84.64
15750;BME280;7976;52.526;13.326;2022-09-30T05:19:29;100563.63;;;9.37;84.65
15750;BME280;7976;52.526;13.326;2022-09-30T05:21:56;100568.78;;;9.38;84.83
15750;BME280;7976;52.526;13.326;2022-09-30T05:24:23;100559.19;;;9.39;84.79
15750;BME280;7976;52.526;13.326;2022-09-30T05:26:50;100566.13;;;9.40;84.83
15750;BME280;7976;52.526;13.326;2022-09-30T05:29:17;100564.38;;;9.40;84.92
15750;BME280;7976;52.526;13.326;2022-09-30T05:31:45;100557.47;;;9.38;84.92
15750;BME280;7976;52.526;13.326;2022-09-30T05:34:13;100563.44;;;9.41;84.76
15750;BME280;7976;52.526;13.326;2022-09-30T05:36:42;100569.66;;;9.39;84.75
15750;BME280;7976;52.526;13.326;2022-09-30T05:39:10;100580.72;;;9.45;84.55
15750;BME280;7976;52.526;13.326;2022-09-30T05:41:37;100579.84;;;9.45;84.83
15750;BME280;7976;52.526;13.326;2022-09-30T05:44:03;100576.34;;;9.46;85.04
15750;BME280;7976;52.526;13.326;2022-09-30T05:46:31;100573.75;;;9.46;84.68
15750;BME280;7976;52.526;13.326;2022-09-30T05:48:58;100580.59;;;9.48;84.70
15750;BME280;7976;52.526;13.326;2022-09-30T05:51:26;100584.88;;;9.51;84.98
15750;BME280;7976;52.526;13.326;2022-09-30T05:53:53;100588.28;;;9.53;84.83
15750;BME280;7976;52.526;13.326;2022-09-30T05:56:20;100595.22;;;9.54;84.61
15750;BME280;7976;52.526;13.326;2022-09-30T05:58:47;100596.09;;;9.54;84.81
15750;BME280;7976;52.526;13.326;2022-09-30T06:01:15;100604.59;;;9.59;84.91
15750;BME280;7976;52.526;13.326;2022-09-30T06:03:44;100603.63;;;9.62;84.79
15750;BME280;7976;52.526;13.326;2022-09-30T06:06:13;100601.94;;;9.61;84.66
15750;BME280;7976;52.526;13.326;2022-09-30T06:08:42;100612.38;;;9.61;84.53
15750;BME280;7976;52.526;13.326;2022-09-30T06:11:11;100610.59;;;9.61;84.54
15750;BME280;7976;52.526;13.326;2022-09-30T06:13:39;100620.06;;;9.65;84.45
15750;BME280;7976;52.526;13.326;2022-09-30T06:16:08;100618.25;;;9.67;84.29
15750;BME280;7976;52.526;13.326;2022-09-30T06:18:37;100615.63;;;9.67;84.25
15750;BME280;7976;52.526;13.326;2022-09-30T06:21:08;100615.53;;;9.70;84.54
15750;BME280;7976;52.526;13.326;2022-09-30T06:23:35;100610.13;;;9.75;84.54
15750;BME280;7976;52.526;13.326;2022-09-30T06:26:06;100619.44;;;9.82;84.66
15750;BME280;7976;52.526;13.326;2022-09-30T06:28:34;100619.28;;;9.86;84.59
15750;BME280;7976;52.526;13.326;2022-09-30T06:31:02;100616.44;;;9.92;84.57
15750;BME280;7976;52.526;13.326;2022-09-30T06:33:30;100622.38;;;9.97;84.45
15750;BME280;7976;52.526;13.326;2022-09-30T06:35:57;100621.25;;;10.03;84.95
15750;BME280;7976;52.526;13.326;2022-09-30T06:38:24;100631.56;;;10.07;84.60
15750;BME280;7976;52.526;13.326;2022-09-30T06:40:53;100644.44;;;10.13;84.20
15750;BME280;7976;52.526;13.326;2022-09-30T06:43:22;100632.16;;;10.16;84.21
15750;BME280;7976;52.526;13.326;2022-09-30T06:45:49;100639.91;;;10.19;83.94
15750;BME280;7976;52.526;13.326;2022-09-30T06:48:18;100640.75;;;10.19;83.74
15750;BME280;7976;52.526;13.326;2022-09-30T06:50:47;100644.91;;;10.25;83.85
15750;BME280;7976;52.526;13.326;2022-09-30T06:53:18;100648.16;;;10.31;83.83
15750;BME280;7976;52.526;13.326;2022-09-30T06:55:45;100658.44;;;10.36;83.68
15750;BME280;7976;52.526;13.326;2022-09-30T06:58:14;100660.81;;;10.42;83.47
15750;BME280;7976;52.526;13.326;2022-09-30T07:00:43;100657.16;;;10.46;83.39
15750;BME280;7976;52.526;13.326;2022-09-30T07:03:23;100655.22;;;10.51;83.36
15750;BME280;7976;52.526;13.326;2022-09-30T07:05:56;100660.28;;;10.55;83.39
15750;BME280;7976;52.526;13.326;2022-09-30T07:08:24;100660.13;;;10.60;83.43
15750;BME280;7976;52.526;13.326;2022-09-30T07:10:54;100664.31;;;10.64;82.81
15750;BME280;7976;52.526;13.326;2022-09-30T07:13:21;100656.31;;;10.68;82.72
15750;BME280;7976;52.526;13.326;2022-09-30T07:15:50;100661.41;;;10.71;82.87
15750;BME280;7976;52.526;13.326;2022-09-30T07:18:21;100662.09;;;10.76;82.85
15750;BME280;7976;52.526;13.326;2022-09-30T07:20:50;100648.81;;;10.81;82.60
15750;BME280;7976;52.526;13.326;2022-09-30T07:23:18;100658.19;;;10.86;82.56
15750;BME280;7976;52.526;13.326;2022-09-30T07:25:51;100657.06;;;10.92;82.32
15750;BME280;7976;52.526;13.326;2022-09-30T07:28:19;100662.97;;;10.97;82.23
15750;BME280;7976;52.526;13.326;2022-09-30T07:30:46;100661.03;;;11.02;81.90
15750;BME280;7976;52.526;13.326;2022-09-30T07:33:14;100665.09;;;11.09;81.81
15750;BME280;7976;52.526;13.326;2022-09-30T07:35:50;100661.34;;;11.16;81.49
15750;BME280;7976;52.526;13.326;2022-09-30T07:38:18;100664.63;;;11.21;81.41
15750;BME280;7976;52.526;13.326;2022-09-30T07:40:57;100670.50;;;11.26;81.12
15750;BME280;7976;52.526;13.326;2022-09-30T07:43:26;100669.34;;;11.33;81.46
15750;BME280;7976;52.526;13.326;2022-09-30T07:46:03;100654.22;;;11.39;81.22
15750;BME280;7976;52.526;13.326;2022-09-30T07:48:31;100676.66;;;11.47;81.02
15750;BME280;7976;52.526;13.326;2022-09-30T07:51:15;100668.50;;;11.53;81.18
15750;BME280;7976;52.526;13.326;2022-09-30T07:53:46;100666.47;;;11.59;80.83
15750;BME280;7976;52.526;13.326;2022-09-30T07:56:14;100675.81;;;11.66;80.66
15750;BME280;7976;52.526;13.326;2022-09-30T07:58:42;100676.41;;;11.73;80.55
15750;BME280;7976;52.526;13.326;2022-09-30T08:01:09;100686.59;;;11.80;81.00
15750;BME280;7976;52.526;13.326;2022-09-30T08:03:40;100680.13;;;11.87;80.43
15750;BME280;7976;52.526;13.326;2022-09-30T08:06:12;100680.78;;;11.92;80.56
15750;BME280;7976;52.526;13.326;2022-09-30T08:08:41;100679.69;;;11.98;80.36
15750;BME280;7976;52.526;13.326;2022-09-30T08:11:09;100682.03;;;12.04;80.41
15750;BME280;7976;52.526;13.326;2022-09-30T08:13:36;100690.50;;;12.10;80.20
15750;BME280;7976;52.526;13.326;2022-09-30T08:16:04;100691.00;;;12.18;80.01
15750;BME280;7976;52.526;13.326;2022-09-30T08:18:32;100690.63;;;12.26;80.05
15750;BME280;7976;52.526;13.326;2022-09-30T08:21:04;100695.56;;;12.33;79.54
15750;BME280;7976;52.526;13.326;2022-09-30T08:23:32;100689.13;;;12.40;79.37
15750;BME280;7976;52.526;13.326;2022-09-30T08:26:01;100696.69;;;12.46;79.21
15750;BME280;7976;52.526;13.326;2022-09-30T08:28:28;100706.00;;;12.53;79.13
15750;BME280;7976;52.526;13.326;2022-09-30T08:31:03;100696.94;;;12.60;79.05
15750;BME280;7976;52.526;13.326;2022-09-30T08:33:31;100693.94;;;12.68;78.73
15750;BME280;7976;52.526;13.326;2022-09-30T08:36:04;100694.50;;;12.75;78.47
15750;BME280;7976;52.526;13.326;2022-09-30T08:38:31;100707.38;;;12.81;78.19
15750;BME280;7976;52.526;13.326;2022-09-30T08:41:14;100707.84;;;12.89;78.18
15750;BME280;7976;52.526;13.326;2022-09-30T08:43:57;100711.91;;;12.96;78.12
15750;BME280;7976;52.526;13.326;2022-09-30T08:46:40;100713.34;;;13.03;77.63
15750;BME280;7976;52.526;13.326;2022-09-30T08:49:35;100715.50;;;13.12;77.66
15750;BME280;7976;52.526;13.326;2022-09-30T08:52:12;100716.22;;;13.15;77.24
15750;BME280;7976;52.526;13.326;2022-09-30T08:54:47;100722.03;;;13.22;76.74
15750;BME280;7976;52.526;13.326;2022-09-30T08:57:17;100718.19;;;13.29;76.91
15750;BME280;7976;52.526;13.326;2022-09-30T08:59:48;100726.53;;;13.37;76.51
15750;BME280;7976;52.526;13.326;2022-09-30T09:02:22;100726.25;;;13.43;76.25
15750;BME280;7976;52.526;13.326;2022-09-30T09:04:55;100721.63;;;13.48;75.95
15750;BME280;7976;52.526;13.326;2022-09-30T09:07:40;100730.97;;;13.53;75.92
15750;BME280;7976;52.526;13.326;2022-09-30T09:10:27;100733.31;;;13.59;75.35
15750;BME280;7976;52.526;13.326;2022-09-30T09:13:11;100721.63;;;13.65;75.32
15750;BME280;7976;52.526;13.326;2022-09-30T09:16:02;100728.44;;;13.69;74.95
15750;BME280;7976;52.526;13.326;2022-09-30T09:18:51;100731.69;;;13.74;74.75
15750;BME280;7976;52.526;13.326;2022-09-30T09:21:22;100728.97;;;13.75;74.48
15750;BME280;7976;52.526;13.326;2022-09-30T09:24:05;100722.72;;;13.78;74.47
15750;BME280;7976;52.526;13.326;2022-09-30T09:26:38;100725.28;;;13.79;74.77
15750;BME280;7976;52.526;13.326;2022-09-30T09:29:40;100719.00;;;13.82;74.22
15750;BME280;7976;52.526;13.326;2022-09-30T09:32:14;100721.53;;;13.83;74.29
15750;BME280;7976;52.526;13.326;2022-09-30T09:34:49;100723.03;;;13.89;74.48
15750;BME280;7976;52.526;13.326;2022-09-30T09:37:26;100727.03;;;13.96;73.88
15750;BME280;7976;52.526;13.326;2022-09-30T09:40:21;100723.19;;;14.03;73.70
15750;BME280;7976;52.526;13.326;2022-09-30T09:43:06;100714.34;;;14.04;73.24
15750;BME280;7976;52.526;13.326;2022-09-30T09:45:45;100717.41;;;14.12;73.20
15750;BME280;7976;52.526;13.326;2022-09-30T09:48:15;100711.69;;;14.21;72.87
15750;BME280;7976;52.526;13.326;2022-09-30T09:50:56;100710.22;;;14.33;72.68
15750;BME280;7976;52.526;13.326;2022-09-30T09:53:50;100713.38;;;14.39;72.08
15750;BME280;7976;52.526;13.326;2022-09-30T09:56:23;100706.16;;;14.43;72.06
15750;BME280;7976;52.526;13.326;2022-09-30T09:59:08;100713.81;;;14.47;71.34
15750;BME280;7976;52.526;13.326;2022-09-30T10:01:39;100710.09;;;14.51;71.05
15750;BME280;7976;52.526;13.326;2022-09-30T10:04:11;100702.88;;;14.55;71.02
15750;BME280;7976;52.526;13.326;2022-09-30T10:06:48;100706.84;;;14.62;70.65
15750;BME280;7976;52.526;13.326;2022-09-30T10:09:29;100701.09;;;14.71;70.52
15750;BME280;7976;52.526;13.326;2022-09-30T10:12:29;100708.41;;;14.81;70.28
15750;BME280;7976;52.526;13.326;2022-09-30T10:15:01;100704.53;;;14.88;69.89
15750;BME280;7976;52.526;13.326;2022-09-30T10:17:31;100715.38;;;14.98;69.39
15750;BME280;7976;52.526;13.326;2022-09-30T10:20:03;100693.84;;;15.05;69.20
15750;BME280;7976;52.526;13.326;2022-09-30T10:22:35;100699.56;;;15.14;68.72
15750;BME280;7976;52.526;13.326;2022-09-30T10:25:17;100702.63;;;15.22;68.58
15750;BME280;7976;52.526;13.326;2022-09-30T10:27:54;100701.41;;;15.27;68.08
15750;BME280;7976;52.526;13.326;2022-09-30T10:30:48;100696.66;;;15.34;67.79
15750;BME280;7976;52.526;13.326;2022-09-30T10:33:26;100695.53;;;15.38;67.55
15750;BME280;7976;52.526;13.326;2022-09-30T10:36:05;100691.81;;;15.42;67.18
15750;BME280;7976;52.526;13.326;2022-09-30T10:38:34;100695.13;;;15.45;67.17
15750;BME280;7976;52.526;13.326;2022-09-30T10:41:04;100680.81;;;15.49;66.95
15750;BME280;7976;52.526;13.326;2022-09-30T10:43:40;100680.56;;;15.54;67.02
15750;BME280;7976;52.526;13.326;2022-09-30T10:46:08;100685.56;;;15.58;66.49
15750;BME280;7976;52.526;13.326;2022-09-30T10:48:37;100686.22;;;15.62;66.54
15750;BME280;7976;52.526;13.326;2022-09-30T10:51:22;100689.44;;;15.67;66.08
15750;BME280;7976;52.526;13.326;2022-09-30T10:53:52;100689.25;;;15.70;65.62
15750;BME280;7976;52.526;13.326;2022-09-30T10:56:51;100683.59;;;15.76;65.48
15750;BME280;7976;52.526;13.326;2022-09-30T10:59:32;100676.44;;;15.78;64.98
15750;BME280;7976;52.526;13.326;2022-09-30T11:02:21;100680.72;;;15.80;64.91
15750;BME280;7976;52.526;13.326;2022-09-30T11:04:57;100683.59;;;15.76;64.91
15750;BME280;7976;52.526;13.326;2022-09-30T11:07:30;100678.69;;;15.70;64.44
15750;BME280;7976;52.526;13.326;2022-09-30T11:10:05;100678.59;;;15.71;64.50
15750;BME280;7976;52.526;13.326;2022-09-30T11:12:42;100678.31;;;15.76;63.85
15750;BME280;7976;52.526;13.326;2022-09-30T11:15:21;100663.94;;;15.81;64.01
15750;BME280;7976;52.526;13.326;2022-09-30T11:17:56;100655.56;;;15.89;63.98
15750;BME280;7976;52.526;13.326;2022-09-30T11:20:29;100670.25;;;15.93;63.70
15750;BME280;7976;52.526;13.326;2022-09-30T11:23:01;100655.94;;;15.97;63.40
15750;BME280;7976;52.526;13.326;2022-09-30T11:25:42;100654.63;;;16.04;63.04
15750;BME280;7976;52.526;13.326;2022-09-30T11:28:33;100656.97;;;16.08;62.99
15750;BME280;7976;52.526;13.326;2022-09-30T11:31:14;100654.25;;;16.10;62.75
15750;BME280;7976;52.526;13.326;2022-09-30T11:33:59;100654.34;;;16.08;62.69
15750;BME280;7976;52.526;13.326;2022-09-30T11:36:37;100653.88;;;16.02;62.91
15750;BME280;7976;52.526;13.326;2022-09-30T11:39:37;100656.31;;;16.05;62.99
15750;BME280;7976;52.526;13.326;2022-09-30T11:42:17;100657.66;;;16.12;62.80
15750;BME280;7976;52.526;13.326;2022-09-30T11:44:58;100663.09;;;16.23;63.08
15750;BME280;7976;52.526;13.326;2022-09-30T11:47:51;100669.16;;;16.25;62.45
15750;BME280;7976;52.526;13.326;2022-09-30T11:50:41;100666.22;;;16.15;62.31
15750;BME280;7976;52.526;13.326;2022-09-30T11:53:28;100664.03;;;16.08;62.19
15750;BME280;7976;52.526;13.326;2022-09-30T11:56:18;100664.03;;;16.08;61.92
15750;BME280;7976;52.526;13.326;2022-09-30T11:58:57;100664.91;;;16.08;61.99
15750;BME280;7976;52.526;13.326;2022-09-30T12:01:30;100660.63;;;16.06;61.39
15750;BME280;7976;52.526;13.326;2022-09-30T12:04:05;100664.44;;;16.02;61.76
15750;BME280;7976;52.526;13.326;2022-09-30T12:06:39;100666.31;;;16.00;61.49
15750;BME280;7976;52.526;13.326;2022-09-30T12:09:17;100674.69;;;16.06;61.72
15750;BME280;7976;52.526;13.326;2022-09-30T12:11:53;100668.00;;;16.15;61.33
15750;BME280;7976;52.526;13.326;2022-09-30T12:14:29;100664.06;;;16.22;60.93
15750;BME280;7976;52.526;13.326;2022-09-30T12:17:03;100660.28;;;16.26;60.67
15750;BME280;7976;52.526;13.326;2022-09-30T12:19:40;100659.91;;;16.32;60.05
15750;BME280;7976;52.526;13.326;2022-09-30T12:22:13;100659.63;;;16.37;59.50
15750;BME280;7976;52.526;13.326;2022-09-30T12:24:43;100661.03;;;16.42;59.01
15750;BME280;7976;52.526;13.326;2022-09-30T12:27:19;100656.50;;;16.44;58.17
15750;BME280;7976;52.526;13.326;2022-09-30T12:29:58;100660.78;;;16.47;58.04
15750;BME280;7976;52.526;13.326;2022-09-30T12:33:31;100661.44;;;16.50;57.75
15750;BME280;7976;52.526;13.326;2022-09-30T12:36:37;100664.81;;;16.52;57.66
15750;BME280;7976;52.526;13.326;2022-09-30T12:39:37;100667.38;;;16.54;57.62
15750;BME280;7976;52.526;13.326;2022-09-30T12:42:29;100668.88;;;16.58;57.40
15750;BME280;7976;52.526;13.326;2022-09-30T12:45:58;100660.66;;;16.62;57.06
15750;BME280;7976;52.526;13.326;2022-09-30T12:48:35;100665.75;;;16.65;57.11
15750;BME280;7976;52.526;13.326;2022-09-30T12:51:06;100663.75;;;16.69;57.09
15750;BME280;7976;52.526;13.326;2022-09-30T12:53:37;100662.69;;;16.71;57.05
15750;BME280;7976;52.526;13.326;2022-09-30T12:56:08;100674.03;;;16.73;57.22
15750;BME280;7976;52.526;13.326;2022-09-30T12:58:41;100675.09;;;16.71;56.64
15750;BME280;7976;52.526;13.326;2022-09-30T13:01:15;100667.63;;;16.63;57.10
15750;BME280;7976;52.526;13.326;2022-09-30T13:03:50;100666.03;;;16.61;57.24
15750;BME280;7976;52.526;13.326;2022-09-30T13:06:21;100658.03;;;16.62;57.55
15750;BME280;7976;52.526;13.326;2022-09-30T13:09:17;100668.59;;;16.62;57.44
15750;BME280;7976;52.526;13.326;2022-09-30T13:11:46;100658.78;;;16.64;57.23
15750;BME280;7976;52.526;13.326;2022-09-30T13:14:31;100649.69;;;16.68;57.45
15750;BME280;7976;52.526;13.326;2022-09-30T13:19:44;100657.91;;;16.78;57.17
15750;BME280;7976;52.526;13.326;2022-09-30T13:22:41;100664.78;;;16.80;56.71
15750;BME280;7976;52.526;13.326;2022-09-30T13:25:15;100666.84;;;16.75;56.59
15750;BME280;7976;52.526;13.326;2022-09-30T13:27:45;100670.84;;;16.68;56.79
15750;BME280;7976;52.526;13.326;2022-09-30T13:30:34;100664.44;;;16.58;57.14
15750;BME280;7976;52.526;13.326;2022-09-30T13:33:40;100668.34;;;16.53;57.44
15750;BME280;7976;52.526;13.326;2022-09-30T13:36:28;100665.69;;;16.53;57.17
15750;BME280;7976;52.526;13.326;2022-09-30T13:39:24;100651.97;;;16.60;57.28